HEFMANASSAS RGNL/HARRY P DAVIS FLD
METARs for airports near HEF, sorted by distance:
N 0 nm 192' KHEF 142156Z 21007KT 10SM CLR 35/19 A2996
SW 12 nm 336' KHWY 142215Z 18005KT 10SM CLR 35/17 A2996
N 13 nm 312' KIAD 142152Z 21010KT 10SM FEW090 FEW140 35/18 A2995
E 15 nm 73' KDAA 142155Z 18005KT 10SM CLR 36/17 A2992
SE 16 nm 10' KNYG 142156Z 5SM CLR 36/21 A2995
S 19 nm 219' KRMN 142215Z 21005KT 10SM CLR 35/14 A2996
SW 19 nm 315' KCJR 142215Z 17005KT 10SM CLR 35/17 A2997
N 21 nm 389' KJYO 142215Z 21006KT 170V230 10SM SCT100 SCT120 36/21 A2996
E 23 nm 14' KDCA 142152Z 20007KT 10SM FEW080 FEW250 37/17 A2993
S 27 nm 85' KEZF 142215Z 00000KT 10SM CLR 35/18 A2995
E 30 nm 279' KADW 142155Z 13010KT 10SM CLR 31/21 A2993
NE 31 nm 538' KGAI 142156Z VRB03KT 3SM BR OVC070 A2997
NE 31 nm 48' KCGS 142205Z 12006KT 10SM CLR 33/23 A2995
W 36 nm 703' KFRR 142215Z 18005KT SCT100 35/17 A2996
SW 37 nm 464' KOMH 142215Z 17003KT 10SM CLR 33/20 A2999
NW 38 nm 726' KOKV 142215Z 26003KT 10SM SCT100 35/14 A2995
NE 41 nm 150' KFME 142209Z 17006KT 10SM CLR 31/22 A2998
N 42 nm 308' KFDK 142147Z 00000KT 10SM CLR 37/16 A2994
SW 45 nm 454' KGVE 142215Z 00000KT 10SM CLR 34/21 A2997
W 46 nm 902' KLUA 142215Z 00000KT 10SM 36/17 A2998
NW 46 nm 564' KMRB 142153Z 24007KT 10SM CLR 36/12 A2993
SW 47 nm 493' KLKU 142215Z 13003KT 10SM SCT100 33/21 A2998
NE 48 nm 143' KBWI 142154Z 17006KT 10SM FEW065 FEW250 34/22 A2994
SW 56 nm 640' KCHO 142153Z 16005KT 10SM BKN090 33/19 A2997
SE 58 nm 38' KNHK 142152Z 13007KT 10SM SCT050 BKN240 33/25 A2995
NE 58 nm 789' KDMW 142205Z 23006KT 10SM CLR 37/16 A2997
SE 59 nm 135' KXSA 142215Z 17004KT 10SM CLR 34/24 A2998
N 60 nm 703' KHGR 142153Z 17006KT 10SM CLR 36/18 A2994
S 60 nm 206' KOFP 142154Z 23007KT 10SM CLR 36/20 A2997
NE 62 nm 21' KMTN 142155Z 12010KT 10SM CLR 31/23 A2997
E 67 nm 72' KESN 142145Z 22005KT 10SM CLR 30/22 A2997
SW 70 nm 1201' KSHD 142215Z 23008KT 10SM SCT090 35/16 A3002
E 70 nm 19' KCGE 142205Z 00000KT 10SM SCT055 30/24 A2996
W 71 nm 1165' KVBW 142215Z 25006KT 10SM SCT120 34/16 A2999
S 73 nm 167' KRIC 142154Z 19009KT 10SM FEW050 35/22 A2996
NE 77 nm 44' KAPG 122034Z VRB05KT 7SM -RA SCT030 OVC050 26/22 A3014
N 77 nm 494' KTHV 142153Z 14007KT 10SM FEW070 34/20 A2995
S 78 nm 236' KFCI 142156Z 21005KT 10SM CLR 34/22 A2998
NW 79 nm 775' KCBE 142205Z 28016G21KT 10SM CLR 36/10 A3001
SE 80 nm 20' KFYJ 142215Z 00000KT 5SM CLR 33/24 A2997
SE 89 nm 5' KTGI 142035Z 16010G14KT 10SM CLR 32/24 A2999
S 92 nm 192' KPTB 142215Z 15003KT 10SM CLR 33/23 A2999
SW 92 nm 415' KFVX 142215Z 19006KT 10SM CLR 33/22 A2997
NW 94 nm 1161' KHMZ 142155Z 25008G17KT 10SM CLR 34/10 A2998
N 94 nm 346' KCXY 142156Z VRB03KT 10SM CLR 36/15 A2993
N 95 nm 310' KMDT 142156Z 25003KT 10SM SCT045 34/21 A2993
E 96 nm 52' KSBY 142154Z 15007KT 10SM CLR 30/23 A2998
E 98 nm 28' KDOV 142155Z 20014KT 10SM FEW170 33/21 A2994
TAFs for airports near HEF, sorted by distance:
N 13 nm 312' KIAD KIAD 142102Z 1421/1524 23009KT P6SM FEW250
  FM142300 21005KT P6SM FEW250
  FM150300 18004KT P6SM FEW250
  FM151600 26005KT P6SM FEW250
E 15 nm 73' KDAA TAF KDAA 121200Z 1212/1318 VRB05KT 9999 VCSH SCT030 BKN060 OVC100 QNH2996INS
  BECMG 1212/1213 03006KT 9000 -SHRA FEW015 BKN030 OVC070 QNH3000INS
  BECMG 1213/1214 04007KT 8000 -SHRA VCTS SCT015CB OVC030 QNH3011INS
  TEMPO 1214/1301 VRB12G20KT 4800 TSRA BR SCT008 OVC015CB
  BECMG 1302/1303 VRB06KT 9000 -RA OVC010 QNH3010INS
  BECMG 1306/1307 VRB05KT 4800 -RA BR OVC008 QNH3011INS
  BECMG 1312/1313 16007KT 8000 -SHRA VCTS SCT009 BKN015CB OVC030 QNH3012INS TX27/1220Z TN24/1310Z
SE 16 nm 10' KNYG TAF KNYG 1321/1421 VRB06KT 9999 SKC QNH3005INS
  FM140600 VRB06KT 9999 SCT200 QNH2995INS LAST NO
  AMDS AFT 1321 NEXT 1509 AUTOMATED SENSOR METWATCH 1321 TIL 1511 T32/1321Z T22/1411Z
E 23 nm 14' KDCA KDCA 142102Z 1421/1524 21008G16KT P6SM VCTS SCT060CB SCT250
  FM142200 08008G16KT P6SM FEW200
  FM150500 17005KT P6SM FEW200
  FM151600 26005KT P6SM FEW200
E 30 nm 279' KADW TAF
  AMD KADW 141910Z 1419/1523 27012KT 9999 VCTS SCT050CB QNH2997INS
  TEMPO 1419/1421 29012G18KT 8000 -TSRA BKN050CB
  BECMG 1420/1421 22006KT 9999 NSW SCT050 QNH2994INS
  BECMG 1500/1501 17006KT 9999 FEW070 QNH2992INS
  BECMG 1506/1507 26006KT 9999 SCT060 SCT250 QNH2986INS
  BECMG 1518/1519 23012KT 9999 -SHRA VCTS BKN040CB QNH2983INS TX38/1419Z TN23/1509Z
NW 46 nm 564' KMRB KMRB 141727Z 1418/1518 25006KT P6SM FEW250
  FM142300 21005KT P6SM FEW250
  FM150300 17004KT P6SM FEW250
  FM151000 23005KT P6SM FEW200
  FM151400 28004KT P6SM FEW200
NE 48 nm 143' KBWI TAF
  AMD KBWI 142102Z 1421/1524 18009G15KT P6SM VCTS SCT060CB SCT250
  FM142300 20004KT P6SM FEW200
  FM150500 17004KT P6SM FEW250
  FM151600 25005KT P6SM FEW200
SW 56 nm 640' KCHO TAF
  AMD KCHO 142008Z 1420/1518 16008G16KT P6SM FEW250
  FM150000 00000KT P6SM FEW250
  FM150500 18005KT P6SM FEW250
  FM151600 26003KT P6SM FEW200
SE 58 nm 38' KNHK TAF KNHK 1415/1515 VRB06KT 9999 FEW030 FEW100 QNH2995INS
  FM141700 15008KT 9999 VCTS FEW040CB SCT060 SCT070 QNH2993INS
  BECMG 1504/1506 23008KT 9999 NSW FEW060 FEW080 QNH2989INS TX32/1418Z TN26/1509Z FN00268
NE 62 nm 21' KMTN KMTN 142001Z 1420/1518 15012G20KT P6SM FEW250
  FM150000 20005KT P6SM FEW250
  FM150400 17005KT P6SM FEW250
  FM151600 21005KT P6SM FEW200
S 73 nm 167' KRIC KRIC 141722Z 1418/1518 19008KT P6SM SCT060
  FM142300 22005KT P6SM SKC
N 95 nm 310' KMDT KMDT 142127Z 1421/1518 27005KT P6SM SCT040
  FM150000 15003KT 6SM BR SCT120
  FM150800 VRB03KT 4SM BR BKN250
  FM151300 28007KT P6SM SCT250
E 96 nm 52' KSBY KSBY 141722Z 1418/1518 17008KT P6SM SCT060
  FM142300 17003KT P6SM SKC
  FM151400 24007KT P6SM SKC
E 98 nm 28' KDOV TAF KDOV 141600Z 1416/1522 18006KT 9999 SCT095 QNH3005INS
  BECMG 1417/1418 22006KT 9999 BKN100 QNH2997INS
  TEMPO 1418/1422 9000 -SHRA
  BECMG 1502/1503 23009KT 9999 SCT080 QNH2993INS TX33/1420Z TN24/1510Z

Shortcut to this page: http://wxbay.com.

Data may contain errors.